Time;durP1;ratioP1;P1;durP2;ratioP2;P2;SDS_P1;SDS_P2;PMS_P1;PMS_P2;Temp;Humidity;BMP_temperature;BMP_pressure;BME280_temperature;BME280_humidity;BME280_pressure;Samples;Min_cycle;Max_cycle;Signal;HPM_P1;HPM_P2
2021/06/17 00:00:29;;;;;;;;;15.00;15.00;;;;;28.28;43.25;100327.09;4994388;28;51074;-47
2021/06/17 00:02:56;;;;;;;;;15.75;15.00;;;;;28.23;43.03;100321.06;4993926;28;50994;-52
2021/06/17 00:05:23;;;;;;;;;14.50;14.50;;;;;28.19;42.86;100331.00;4994680;28;51349;-50
2021/06/17 00:07:49;;;;;;;;;14.50;13.00;;;;;28.18;42.63;100329.25;4994592;28;51159;-51
2021/06/17 00:10:25;;;;;;;;;12.33;12.33;;;;;28.15;43.27;100324.88;4990206;28;51106;-48
2021/06/17 00:12:52;;;;;;;;;15.67;15.33;;;;;28.14;43.28;100327.63;4967112;28;51181;-50
2021/06/17 00:15:19;;;;;;;;;14.33;12.67;;;;;28.11;43.30;100333.97;4975288;28;51180;-50
2021/06/17 00:17:45;;;;;;;;;12.33;12.33;;;;;28.11;43.11;100323.28;4968307;28;51241;-50
2021/06/17 00:20:11;;;;;;;;;14.00;13.00;;;;;28.11;43.08;100333.97;4977002;28;50987;-49
2021/06/17 00:22:37;;;;;;;;;12.00;11.00;;;;;28.12;43.71;100337.47;4985438;28;50960;-51
2021/06/17 00:25:04;;;;;;;;;12.33;12.33;;;;;28.14;43.13;100325.81;4994456;28;51172;-51
2021/06/17 00:27:29;;;;;;;;;14.00;14.00;;;;;28.18;43.49;100323.91;4993209;28;51807;-52
2021/06/17 00:29:54;;;;;;;;;13.67;12.00;;;;;28.20;42.96;100326.50;4993845;28;51163;-51
2021/06/17 00:32:20;;;;;;;;;15.33;14.67;;;;;28.23;43.76;100327.28;4993247;28;51073;-50
2021/06/17 00:34:45;;;;;;;;;15.33;15.00;;;;;28.24;43.34;100325.44;4994618;28;51190;-52
2021/06/17 00:37:11;;;;;;;;;13.33;13.33;;;;;28.24;42.82;100310.31;4998389;28;52003;-49
2021/06/17 00:39:37;;;;;;;;;12.67;12.67;;;;;28.27;44.20;100304.03;5000532;28;51040;-53
2021/06/17 00:42:03;;;;;;;;;13.33;13.33;;;;;28.25;43.61;100298.75;4993669;28;51034;-53
2021/06/17 00:44:29;;;;;;;;;13.67;13.67;;;;;28.22;43.89;100292.63;4991767;28;50875;-49
2021/06/17 00:46:54;;;;;;;;;14.00;13.33;;;;;28.20;43.82;100286.47;4994088;28;51163;-50
2021/06/17 00:49:19;;;;;;;;;13.33;13.33;;;;;28.17;43.92;100285.69;4993545;28;51040;-51
2021/06/17 00:51:45;;;;;;;;;13.33;13.33;;;;;28.16;44.61;100269.72;4994240;28;51279;-49
2021/06/17 00:54:10;;;;;;;;;13.00;13.00;;;;;28.12;44.27;100260.97;4993832;28;51337;-49
2021/06/17 00:56:36;;;;;;;;;14.00;14.00;;;;;28.08;44.11;100261.13;4993742;28;51190;-52
2021/06/17 00:59:03;;;;;;;;;11.67;11.67;;;;;28.04;44.07;100242.59;4993963;28;51016;-51
2021/06/17 01:01:28;;;;;;;;;15.00;15.00;;;;;27.98;44.97;100252.66;4993331;28;51229;-50
2021/06/17 01:03:53;;;;;;;;;13.25;13.25;;;;;27.91;44.69;100263.53;4994343;28;51285;-50
2021/06/17 01:06:19;;;;;;;;;13.67;13.00;;;;;27.86;45.15;100260.19;4993426;28;51202;-51
2021/06/17 01:09:03;;;;;;;;;14.00;14.00;;;;;27.82;44.73;100247.91;4994144;28;51035;-51
2021/06/17 01:11:54;;;;;;;;;13.00;13.00;;;;;27.79;44.80;100237.38;4994413;28;50978;-50
2021/06/17 01:14:26;;;;;;;;;13.00;13.00;;;;;27.73;45.59;100246.47;4993633;28;51240;-50
2021/06/17 01:16:57;;;;;;;;;15.33;14.33;;;;;27.69;45.30;100251.97;4991134;28;53951;-50
2021/06/17 01:19:53;;;;;;;;;13.00;13.00;;;;;27.68;45.94;100239.56;4993006;28;50887;-53
2021/06/17 01:22:19;;;;;;;;;12.33;12.33;;;;;27.68;45.25;100239.56;4980872;28;51327;-51
2021/06/17 01:25:03;;;;;;;;;14.67;14.67;;;;;27.67;45.94;100237.84;4993549;28;51079;-53
2021/06/17 01:27:56;;;;;;;;;13.67;13.00;;;;;27.64;45.37;100245.03;4993484;28;52049;-51
2021/06/17 01:30:24;;;;;;;;;14.00;14.00;;;;;27.61;45.94;100260.25;4993185;28;51017;-51
2021/06/17 01:33:01;;;;;;;;;15.67;15.00;;;;;27.58;45.63;100265.69;4974718;28;51142;-52
2021/06/17 01:35:28;;;;;;;;;14.33;14.00;;;;;27.55;46.42;100253.34;4993436;28;51096;-52
2021/06/17 01:37:57;;;;;;;;;12.67;12.00;;;;;27.54;46.02;100254.25;5000913;28;52370;-53
2021/06/17 01:40:26;;;;;;;;;14.67;13.67;;;;;27.51;45.72;100263.25;4991205;28;51023;-52
2021/06/17 01:42:52;;;;;;;;;14.67;14.00;;;;;27.52;46.33;100269.47;4966806;28;51231;-53
2021/06/17 01:45:18;;;;;;;;;13.33;13.00;;;;;27.53;45.50;100289.84;4993489;28;51343;-50
2021/06/17 01:47:46;;;;;;;;;14.00;14.00;;;;;27.57;45.56;100352.81;4992733;28;51801;-51
2021/06/17 01:50:12;;;;;;;;;13.67;13.67;;;;;27.58;46.62;100487.88;4993126;28;50963;-50
2021/06/17 01:52:39;;;;;;;;;12.67;12.00;;;;;27.47;47.90;100520.22;4975558;28;51250;-51
2021/06/17 01:55:06;;;;;;;;;7.00;6.00;;;;;27.17;49.69;100530.09;4989849;28;51089;-53
2021/06/17 01:57:34;;;;;;;;;5.67;5.00;;;;;26.66;53.43;100537.81;4992407;28;52173;-51
2021/06/17 02:00:01;;;;;;;;;4.00;4.00;;;;;26.25;55.16;100573.56;4992993;28;51055;-53
2021/06/17 02:02:28;;;;;;;;;6.00;5.00;;;;;25.81;57.14;100587.06;4993016;28;51051;-49
2021/06/17 02:04:55;;;;;;;;;8.67;5.33;;;;;25.28;58.56;100543.97;4992892;28;51029;-51
2021/06/17 02:07:24;;;;;;;;;6.00;5.67;;;;;24.74;60.17;100492.91;4974691;28;51118;-50
2021/06/17 02:09:52;;;;;;;;;6.00;6.00;;;;;24.45;65.48;100478.47;4992752;28;50983;-50
2021/06/17 02:12:18;;;;;;;;;6.67;6.00;;;;;24.38;65.34;100463.63;4992642;28;51126;-50
2021/06/17 02:14:45;;;;;;;;;9.00;8.00;;;;;24.38;62.20;100437.94;4992750;28;50983;-52
2021/06/17 02:17:13;;;;;;;;;10.00;8.00;;;;;24.41;60.84;100446.75;4992609;28;51850;-51
2021/06/17 02:19:39;;;;;;;;;8.33;8.00;;;;;24.41;60.08;100452.06;4992338;28;51118;-51
2021/06/17 02:22:07;;;;;;;;;7.00;6.67;;;;;24.44;59.67;100455.50;4974958;28;51316;-52
2021/06/17 02:24:36;;;;;;;;;10.00;9.33;;;;;24.49;60.12;100461.59;4992995;28;50949;-50
2021/06/17 02:27:06;;;;;;;;;7.67;7.33;;;;;24.53;59.16;100483.63;4974289;28;51270;-51
2021/06/17 02:29:37;;;;;;;;;8.00;8.00;;;;;24.58;58.87;100545.44;4992446;28;51060;-52
2021/06/17 02:32:05;;;;;;;;;8.67;6.67;;;;;24.57;60.05;100675.56;4992716;28;51058;-49
2021/06/17 02:34:31;;;;;;;;;6.33;6.33;;;;;24.40;61.59;100729.81;4975065;28;51285;-50
2021/06/17 02:36:57;;;;;;;;;6.33;6.33;;;;;24.16;67.32;100762.91;4984747;28;51823;-52
2021/06/17 02:39:27;;;;;;;;;6.67;6.00;;;;;23.69;68.81;100744.97;4998159;28;51031;-49
2021/06/17 02:41:58;;;;;;;;;8.00;7.33;;;;;23.02;69.74;100737.78;4992033;28;51115;-51
2021/06/17 02:44:27;;;;;;;;;9.67;9.00;;;;;22.78;69.33;100730.09;4990251;28;51170;-53
2021/06/17 02:46:54;;;;;;;;;8.00;7.00;;;;;22.77;68.13;100682.44;4972450;28;51135;-50
2021/06/17 02:49:19;;;;;;;;;9.33;9.00;;;;;22.83;67.56;100668.28;4972409;28;51078;-52
2021/06/17 02:51:45;;;;;;;;;8.33;8.00;;;;;22.92;66.93;100652.28;4981380;28;51034;-55
2021/06/17 02:54:11;;;;;;;;;8.67;8.67;;;;;23.04;66.73;100638.03;4992261;28;50898;-51
2021/06/17 02:57:04;;;;;;;;;9.00;8.00;;;;;23.18;66.27;100614.88;4992278;28;52352;-50
2021/06/17 02:59:40;;;;;;;;;9.00;9.00;;;;;23.30;65.27;100605.00;4992288;28;50989;-48
2021/06/17 03:02:09;;;;;;;;;11.00;9.67;;;;;23.38;65.23;100599.66;4992084;28;50929;-48
2021/06/17 03:04:51;;;;;;;;;9.67;8.67;;;;;23.44;65.32;100581.00;4992531;28;50933;-50
2021/06/17 03:07:24;;;;;;;;;10.00;9.00;;;;;23.52;65.04;100573.81;4995053;28;51806;-52
2021/06/17 03:10:10;;;;;;;;;8.67;8.00;;;;;23.55;65.28;100557.00;4995763;28;50916;-51
2021/06/17 03:12:40;;;;;;;;;10.00;9.33;;;;;23.55;64.86;100536.66;4995551;28;50930;-52
2021/06/17 03:15:07;;;;;;;;;9.33;8.33;;;;;23.57;64.70;100539.28;4994563;28;51191;-52
2021/06/17 03:17:40;;;;;;;;;10.67;10.00;;;;;23.62;64.40;100516.22;4990455;28;53156;-52
2021/06/17 03:20:09;;;;;;;;;9.00;9.00;;;;;23.64;63.99;100543.59;4992925;28;51073;-52
2021/06/17 03:22:36;;;;;;;;;8.67;8.67;;;;;23.66;63.29;100527.69;4975977;28;51061;-51
2021/06/17 03:25:08;;;;;;;;;11.33;10.67;;;;;23.60;63.09;100526.00;4975705;28;50993;-49
2021/06/17 03:27:35;;;;;;;;;9.00;9.00;;;;;23.56;63.10;100543.72;4975430;28;50935;-53
2021/06/17 03:30:04;;;;;;;;;9.00;8.33;;;;;23.52;63.47;100534.06;4989498;28;50989;-53
2021/06/17 03:32:31;;;;;;;;;9.33;8.33;;;;;23.53;63.46;100537.59;4995338;28;50936;-49
2021/06/17 03:34:59;;;;;;;;;10.00;9.33;;;;;23.55;63.00;100527.84;4995233;28;51039;-49
2021/06/17 03:37:27;;;;;;;;;11.33;8.33;;;;;23.52;63.24;100493.44;5000855;28;50972;-52
2021/06/17 03:39:54;;;;;;;;;7.00;6.33;;;;;23.45;63.25;100448.50;4989669;28;50966;-50
2021/06/17 03:42:21;;;;;;;;;7.00;7.00;;;;;23.47;63.65;100435.25;4994696;28;51046;-50
2021/06/17 03:44:48;;;;;;;;;8.33;8.00;;;;;23.49;63.23;100425.47;4995256;28;50931;-52
2021/06/17 03:47:16;;;;;;;;;7.33;7.00;;;;;23.52;63.33;100414.84;4994776;28;51980;-52
2021/06/17 03:49:43;;;;;;;;;7.33;7.00;;;;;23.49;63.50;100414.88;4995001;28;50938;-50
2021/06/17 03:52:09;;;;;;;;;8.67;8.00;;;;;23.46;63.41;100437.00;4977489;28;51033;-50
2021/06/17 03:54:38;;;;;;;;;9.67;8.67;;;;;23.46;62.94;100473.22;4993107;28;51084;-49
2021/06/17 03:57:06;;;;;;;;;8.67;8.00;;;;;23.42;63.73;100480.34;4994602;28;51215;-50
2021/06/17 03:59:44;;;;;;;;;9.00;8.33;;;;;23.36;63.54;100490.16;4994566;28;50921;-52
2021/06/17 04:02:11;;;;;;;;;10.00;8.00;;;;;23.34;63.38;100479.59;4994645;28;50993;-52
2021/06/17 04:04:37;;;;;;;;;8.00;8.00;;;;;23.29;64.25;100497.31;4994836;28;51468;-53
2021/06/17 04:07:06;;;;;;;;;7.33;7.00;;;;;23.21;64.59;100500.06;4994426;28;51730;-53
2021/06/17 04:09:34;;;;;;;;;7.33;7.33;;;;;23.17;64.74;100507.19;4992093;28;50960;-52
2021/06/17 04:12:09;;;;;;;;;9.00;9.00;;;;;23.13;67.48;100512.56;4989959;28;51174;-52
2021/06/17 04:14:45;;;;;;;;;11.33;9.00;;;;;23.06;66.43;100506.47;4994663;28;51049;-50
2021/06/17 04:17:16;;;;;;;;;11.00;11.00;;;;;23.00;68.89;100503.91;4991752;28;51841;-52
2021/06/17 04:19:43;;;;;;;;;10.00;9.00;;;;;22.88;68.37;100494.38;4994658;28;51123;-52
2021/06/17 04:22:12;;;;;;;;;9.00;9.00;;;;;22.74;70.26;100483.97;4994483;28;50998;-51
2021/06/17 04:24:42;;;;;;;;;8.33;6.67;;;;;22.58;69.38;100473.59;4993575;28;51171;-51
2021/06/17 04:27:08;;;;;;;;;10.67;10.00;;;;;22.48;68.81;100456.91;4980887;28;52292;-52
2021/06/17 04:29:39;;;;;;;;;12.33;10.67;;;;;22.43;68.61;100462.28;4993866;28;51149;-49
2021/06/17 04:32:07;;;;;;;;;10.33;9.67;;;;;22.42;68.25;100479.06;4994655;28;50897;-50
2021/06/17 04:34:35;;;;;;;;;10.00;10.00;;;;;22.46;68.12;100485.19;4962835;28;51319;-49
2021/06/17 04:37:03;;;;;;;;;9.00;8.00;;;;;22.53;68.21;100483.34;4990203;28;52874;-52
2021/06/17 04:39:29;;;;;;;;;10.00;10.00;;;;;22.60;68.48;100474.47;4999226;28;51080;-51
2021/06/17 04:41:54;;;;;;;;;10.33;9.33;;;;;22.65;67.99;100484.97;4994279;28;51113;-51
2021/06/17 04:44:23;;;;;;;;;11.00;9.00;;;;;22.72;68.19;100485.78;4992036;28;50974;-53
2021/06/17 04:46:50;;;;;;;;;9.00;8.67;;;;;22.79;68.68;100482.16;4993980;28;51859;-53
2021/06/17 04:49:17;;;;;;;;;8.00;8.00;;;;;22.83;68.74;100470.59;4993909;28;51148;-51
2021/06/17 04:51:43;;;;;;;;;11.00;10.67;;;;;22.83;68.06;100489.13;4993761;28;51247;-47
2021/06/17 04:54:18;;;;;;;;;12.67;12.67;;;;;22.86;68.66;100489.09;4993474;28;51358;-48
2021/06/17 04:56:44;;;;;;;;;10.33;10.33;;;;;22.94;69.31;100481.03;4993926;28;53000;-50
2021/06/17 04:59:09;;;;;;;;;11.00;11.00;;;;;23.01;68.09;100476.53;4992374;28;50992;-50
2021/06/17 05:01:35;;;;;;;;;11.67;11.00;;;;;23.12;68.13;100489.63;4994076;28;50962;-47
2021/06/17 05:04:00;;;;;;;;;10.50;10.00;;;;;23.23;68.08;100476.22;4957559;28;51128;-49
2021/06/17 05:06:26;;;;;;;;;11.33;11.00;;;;;23.39;67.97;100483.03;4977831;28;51921;-49
2021/06/17 05:11:37;;;;;;;;;9.33;9.33;;;;;23.95;66.33;100497.13;4992587;28;51092;-48
2021/06/17 05:14:03;;;;;;;;;9.00;9.00;;;;;24.45;65.57;100502.38;4987407;28;50866;-47
2021/06/17 05:16:28;;;;;;;;;9.33;9.00;;;;;25.09;64.36;100493.06;4986993;28;51354;-48
2021/06/17 05:18:54;;;;;;;;;12.33;11.67;;;;;25.73;62.95;100483.56;4958686;28;51152;-50
2021/06/17 05:21:19;;;;;;;;;11.33;11.00;;;;;26.26;61.25;100487.47;4988970;28;51059;-49
2021/06/17 05:23:44;;;;;;;;;9.33;9.33;;;;;26.82;59.98;100480.50;4984896;28;51121;-50
2021/06/17 05:26:10;;;;;;;;;10.00;10.00;;;;;27.48;58.79;100486.44;4995534;28;52829;-49
2021/06/17 05:28:35;;;;;;;;;11.00;10.00;;;;;28.26;56.88;100486.47;4956512;28;51025;-50
2021/06/17 05:31:02;;;;;;;;;13.67;10.33;;;;;28.90;55.26;100492.09;4987919;28;51150;-53
2021/06/17 05:33:30;;;;;;;;;9.67;9.67;;;;;29.64;53.31;100488.19;4981281;28;51131;-53
2021/06/17 05:35:56;;;;;;;;;11.00;11.00;;;;;30.31;51.78;100492.47;4962815;28;52393;-49
2021/06/17 05:38:23;;;;;;;;;10.67;9.00;;;;;30.96;50.71;100502.00;4994210;28;51343;-52
2021/06/17 05:40:50;;;;;;;;;9.00;7.33;;;;;31.50;48.50;100509.22;4975204;28;51309;-50
2021/06/17 05:43:16;;;;;;;;;7.00;6.33;;;;;31.96;46.25;100503.31;4971728;28;51415;-51
2021/06/17 05:45:42;;;;;;;;;6.00;6.00;;;;;32.25;45.84;100506.25;4986286;28;51016;-52
2021/06/17 05:48:08;;;;;;;;;8.00;7.00;;;;;32.59;43.63;100525.94;4979532;28;51245;-51
2021/06/17 05:50:34;;;;;;;;;9.33;8.33;;;;;32.81;43.40;100526.56;4992489;28;51039;-50
2021/06/17 05:53:00;;;;;;;;;8.00;7.33;;;;;32.56;42.50;100526.09;4974751;28;50867;-48
2021/06/17 05:55:26;;;;;;;;;6.67;6.33;;;;;32.05;42.58;100536.84;4992168;28;51884;-50
2021/06/17 05:57:51;;;;;;;;;7.67;7.67;;;;;32.15;43.61;100537.25;4992503;28;51492;-53
2021/06/17 06:00:17;;;;;;;;;8.00;8.00;;;;;32.43;43.01;100530.38;4992913;28;51175;-51
2021/06/17 06:02:42;;;;;;;;;8.00;8.00;;;;;32.26;42.35;100529.47;4991739;28;51222;-49
2021/06/17 06:05:08;;;;;;;;;7.00;7.00;;;;;33.09;42.07;100547.38;4992211;28;52872;-51
2021/06/17 06:07:34;;;;;;;;;8.33;8.00;;;;;34.24;40.45;100549.72;4991187;28;51162;-51
2021/06/17 06:09:59;;;;;;;;;7.00;7.00;;;;;34.67;38.94;100549.75;4991188;28;51183;-53
2021/06/17 06:12:25;;;;;;;;;9.33;9.00;;;;;34.96;38.78;100556.91;4986540;28;51106;-50
2021/06/17 06:14:50;;;;;;;;;10.33;9.33;;;;;34.47;38.14;100569.00;4985271;28;52089;-49
2021/06/17 06:17:16;;;;;;;;;6.67;5.67;;;;;33.93;38.31;100576.69;4992029;28;51156;-51
2021/06/17 06:19:41;;;;;;;;;9.00;8.00;;;;;34.27;38.54;100585.44;4971459;28;51051;-49
2021/06/17 06:22:07;;;;;;;;;8.00;7.33;;;;;34.56;37.81;100589.97;4990752;28;51101;-53
2021/06/17 06:24:35;;;;;;;;;7.33;5.67;;;;;34.28;37.24;100597.09;4989967;28;51965;-51
2021/06/17 06:27:02;;;;;;;;;7.67;7.67;;;;;33.43;37.97;100584.94;4990421;28;50978;-50
2021/06/17 06:29:28;;;;;;;;;9.67;9.67;;;;;32.57;38.63;100591.44;4973686;28;51222;-50
2021/06/17 06:31:55;;;;;;;;;8.00;7.33;;;;;31.97;39.87;100614.25;4991689;28;51315;-53
2021/06/17 06:34:20;;;;;;;;;10.00;10.00;;;;;31.22;40.56;100625.88;4991261;28;51088;-52
2021/06/17 06:36:46;;;;;;;;;8.00;7.67;;;;;30.74;42.14;100618.25;4992117;28;51093;-52
2021/06/17 06:39:11;;;;;;;;;8.00;8.00;;;;;30.72;41.82;100618.31;4998873;28;51210;-51
2021/06/17 06:41:37;;;;;;;;;9.67;9.33;;;;;30.95;42.37;100621.72;4988141;28;51142;-51
2021/06/17 06:44:03;;;;;;;;;8.00;8.00;;;;;32.31;41.98;100616.06;4973236;28;52869;-54
2021/06/17 06:46:29;;;;;;;;;9.00;8.00;;;;;33.20;40.17;100615.84;4990129;28;51099;-53
2021/06/17 06:48:54;;;;;;;;;7.33;6.67;;;;;33.07;38.83;100621.94;4973733;28;50952;-51
2021/06/17 06:51:20;;;;;;;;;8.33;8.33;;;;;32.50;39.39;100636.63;4991549;28;51023;-48
2021/06/17 06:53:45;;;;;;;;;9.33;9.33;;;;;31.95;39.66;100639.34;4991234;28;52048;-50
2021/06/17 06:56:10;;;;;;;;;10.67;9.33;;;;;31.42;40.49;100641.03;4991026;28;50875;-49
2021/06/17 06:58:36;;;;;;;;;7.00;7.00;;;;;31.14;41.39;100647.69;4991329;28;50916;-52
2021/06/17 07:01:01;;;;;;;;;8.33;7.33;;;;;30.84;41.55;100645.50;4991458;28;51430;-51
2021/06/17 07:03:26;;;;;;;;;9.00;8.33;;;;;30.45;41.72;100655.22;4991489;28;52300;-52
2021/06/17 07:05:52;;;;;;;;;9.00;9.00;;;;;30.21;42.37;100658.91;4991106;28;51182;-54
2021/06/17 07:08:18;;;;;;;;;7.00;6.67;;;;;30.08;42.82;100657.66;4991689;28;51017;-51
2021/06/17 07:10:46;;;;;;;;;7.00;7.00;;;;;29.98;43.79;100658.03;4988206;28;50924;-52
2021/06/17 07:13:11;;;;;;;;;8.00;8.00;;;;;30.01;43.41;100665.06;4982505;28;51329;-51
2021/06/17 07:15:37;;;;;;;;;7.33;7.33;;;;;30.07;43.15;100671.97;4991409;28;51119;-51
2021/06/17 07:18:03;;;;;;;;;7.00;7.00;;;;;30.21;43.23;100666.94;4989523;28;51015;-51
2021/06/17 07:20:28;;;;;;;;;4.67;4.67;;;;;30.54;42.38;100665.53;4972958;28;51424;-47
2021/06/17 07:22:57;;;;;;;;;8.67;8.00;;;;;30.68;42.17;100658.69;4990014;28;51034;-48
2021/06/17 07:25:24;;;;;;;;;7.00;7.00;;;;;31.07;41.07;100662.34;4989618;28;51010;-51
2021/06/17 07:27:50;;;;;;;;;6.67;6.67;;;;;31.06;41.11;100665.97;4989518;28;50983;-49
2021/06/17 07:30:16;;;;;;;;;6.67;6.67;;;;;31.08;41.26;100673.00;4989654;28;51322;-50
2021/06/17 07:32:42;;;;;;;;;7.67;7.33;;;;;31.14;40.82;100677.19;4990985;28;52236;-50
2021/06/17 07:35:08;;;;;;;;;7.00;6.00;;;;;31.11;41.08;100685.38;4991214;28;51120;-52
2021/06/17 07:37:33;;;;;;;;;5.67;5.33;;;;;30.90;41.09;100688.09;4998420;28;50973;-50
2021/06/17 07:39:58;;;;;;;;;6.00;5.33;;;;;30.91;41.30;100689.81;4989205;28;51290;-50
2021/06/17 07:42:24;;;;;;;;;7.00;7.00;;;;;31.08;41.50;100677.47;4990806;28;52000;-50
2021/06/17 07:44:52;;;;;;;;;6.00;6.00;;;;;31.60;40.27;100684.03;4986021;28;51336;-50
2021/06/17 07:47:18;;;;;;;;;5.00;5.00;;;;;32.09;39.77;100687.00;4970210;28;51200;-48
2021/06/17 07:49:43;;;;;;;;;4.33;4.33;;;;;32.72;39.54;100686.50;4990466;28;51376;-50
2021/06/17 07:52:09;;;;;;;;;10.00;9.67;;;;;33.54;37.92;100694.69;4990658;28;51862;-50
2021/06/17 07:54:34;;;;;;;;;7.67;7.33;;;;;34.15;34.75;100694.81;4994281;28;51107;-50
2021/06/17 07:57:01;;;;;;;;;5.00;4.00;;;;;34.16;36.52;100680.38;4994669;28;51092;-50
2021/06/17 07:59:27;;;;;;;;;7.00;7.00;;;;;35.91;36.29;100684.88;4991072;28;51297;-50
2021/06/17 08:01:52;;;;;;;;;4.33;3.33;;;;;37.21;32.21;100685.84;4993552;28;52235;-53
2021/06/17 08:04:19;;;;;;;;;5.33;5.33;;;;;38.11;29.45;100689.19;4993011;28;51056;-52
2021/06/17 08:06:45;;;;;;;;;4.67;4.67;;;;;38.36;28.33;100691.84;4994502;28;50946;-51
2021/06/17 08:09:10;;;;;;;;;4.33;4.33;;;;;38.98;28.14;100695.13;4992201;28;50863;-52
2021/06/17 08:11:37;;;;;;;;;4.00;4.00;;;;;40.21;26.50;100685.09;4986933;28;51273;-50
2021/06/17 08:14:03;;;;;;;;;5.00;5.00;;;;;41.03;25.53;100688.00;4992832;28;50894;-53
2021/06/17 08:16:28;;;;;;;;;4.00;3.00;;;;;41.30;24.18;100694.72;4993526;28;50899;-53
2021/06/17 08:18:54;;;;;;;;;3.33;3.33;;;;;41.85;24.83;100700.66;4994334;28;51408;-50
2021/06/17 08:21:22;;;;;;;;;5.00;5.00;;;;;42.45;23.54;100705.06;4993715;28;52886;-51
2021/06/17 08:23:47;;;;;;;;;2.33;2.33;;;;;43.31;23.26;100701.44;4993845;28;50994;-51
2021/06/17 08:26:13;;;;;;;;;3.00;3.00;;;;;44.72;21.98;100699.94;4993618;28;51085;-49
2021/06/17 08:28:38;;;;;;;;;5.67;5.00;;;;;45.82;21.88;100706.44;4991421;28;51053;-49
2021/06/17 08:31:04;;;;;;;;;3.67;3.00;;;;;46.88;20.26;100711.09;4989066;28;53055;-53
2021/06/17 08:33:33;;;;;;;;;3.33;3.00;;;;;47.83;19.51;100713.03;4992814;28;50964;-49
2021/06/17 08:36:02;;;;;;;;;3.67;3.67;;;;;47.51;17.65;100715.81;4992841;28;51107;-50
2021/06/17 08:38:27;;;;;;;;;5.00;4.00;;;;;45.46;17.93;100712.19;4969474;28;51409;-50
2021/06/17 08:40:54;;;;;;;;;4.00;4.00;;;;;43.93;20.13;100719.84;4992469;28;52129;-51
2021/06/17 08:43:20;;;;;;;;;1.33;1.33;;;;;43.61;20.33;100718.50;4992523;28;52398;-51
2021/06/17 08:45:45;;;;;;;;;3.67;3.67;;;;;43.86;20.41;100710.59;4991951;28;51191;-51
2021/06/17 08:48:11;;;;;;;;;2.67;2.67;;;;;43.32;20.57;100705.88;4992096;28;51059;-47
2021/06/17 08:50:36;;;;;;;;;4.00;3.67;;;;;42.60;20.74;100721.84;4992854;28;52335;-47
2021/06/17 08:53:02;;;;;;;;;4.00;4.00;;;;;42.17;21.63;100718.63;4972208;28;50933;-51
2021/06/17 08:55:29;;;;;;;;;5.67;4.00;;;;;41.64;22.00;100709.78;4986869;28;50836;-51
2021/06/17 08:57:57;;;;;;;;;5.00;5.00;;;;;41.43;22.25;100705.34;4992813;28;51030;-49
2021/06/17 09:00:23;;;;;;;;;3.33;3.33;;;;;40.91;22.42;100709.03;4974863;28;51117;-51
2021/06/17 09:03:09;;;;;;;;;4.00;4.00;;;;;39.70;23.52;100716.56;4992795;28;51117;-47
2021/06/17 09:05:38;;;;;;;;;4.33;4.33;;;;;39.23;24.44;100706.75;4990584;28;51137;-51
2021/06/17 09:08:04;;;;;;;;;5.00;5.00;;;;;39.79;24.52;100713.06;4988148;28;50886;-51
2021/06/17 09:10:30;;;;;;;;;7.67;6.67;;;;;40.77;23.79;100712.94;4990076;28;52201;-50
2021/06/17 09:12:59;;;;;;;;;6.00;5.00;;;;;41.28;22.92;100712.13;4992578;28;51045;-50
2021/06/17 09:15:35;;;;;;;;;5.00;4.33;;;;;41.45;22.81;100719.66;4993168;28;50985;-51
2021/06/17 09:18:11;;;;;;;;;5.67;4.67;;;;;41.32;22.83;100716.34;4992711;28;51186;-52
2021/06/17 09:20:36;;;;;;;;;4.33;4.33;;;;;41.52;22.15;100713.66;4979197;28;50950;-48
2021/06/17 09:23:32;;;;;;;;;6.33;5.33;;;;;40.75;22.80;100714.06;4972902;28;51136;-50
2021/06/17 09:26:02;;;;;;;;;4.33;4.33;;;;;39.91;24.03;100722.03;4992740;28;51097;-51
2021/06/17 09:29:04;;;;;;;;;6.00;6.00;;;;;40.15;24.13;100729.97;4992329;28;51234;-50
2021/06/17 09:31:41;;;;;;;;;4.00;4.00;;;;;41.08;23.77;100726.56;4987895;28;52700;-50
2021/06/17 09:34:10;;;;;;;;;6.33;6.33;;;;;42.65;22.15;100721.41;4970969;28;51182;-53
2021/06/17 09:36:38;;;;;;;;;7.33;6.00;;;;;41.24;21.95;100719.72;4990355;28;51093;-50
2021/06/17 09:39:14;;;;;;;;;7.00;7.00;;;;;39.64;23.65;100715.22;4979005;28;51301;-49
2021/06/17 09:41:41;;;;;;;;;15.75;15.50;;;;;39.44;24.51;100716.84;4988788;28;51344;-47
2021/06/17 09:44:38;;;;;;;;;7.33;7.33;;;;;41.51;24.12;100710.06;4992538;28;51091;-53
2021/06/17 09:47:19;;;;;;;;;8.00;7.00;;;;;42.11;22.78;100722.75;4992452;28;51126;-51
2021/06/17 09:49:46;;;;;;;;;7.00;4.67;;;;;42.40;22.05;100726.44;4995312;28;51156;-51
2021/06/17 09:52:13;;;;;;;;;6.00;6.00;;;;;42.50;22.12;100724.59;4998135;28;51128;-47
2021/06/17 09:54:40;;;;;;;;;4.33;4.33;;;;;41.42;21.75;100722.69;4994001;28;50898;-49
2021/06/17 09:57:08;;;;;;;;;6.67;6.67;;;;;39.61;22.84;100729.03;4991439;28;51068;-51
2021/06/17 09:59:34;;;;;;;;;3.33;3.33;;;;;38.17;23.91;100732.09;4992676;28;51153;-50
2021/06/17 10:02:03;;;;;;;;;4.33;4.33;;;;;36.93;25.46;100735.66;4991487;28;51084;-48
2021/06/17 10:04:28;;;;;;;;;5.00;4.67;;;;;39.47;25.26;100730.16;4991917;28;50947;-51
2021/06/17 10:06:54;;;;;;;;;5.33;5.00;;;;;41.76;22.65;100728.78;4986425;28;51125;-50
2021/06/17 10:09:19;;;;;;;;;4.00;4.00;;;;;43.16;21.15;100737.47;4992049;28;51099;-47
2021/06/17 10:11:46;;;;;;;;;5.00;5.00;;;;;42.44;21.52;100733.34;4991512;28;52181;-50
2021/06/17 10:14:13;;;;;;;;;6.00;6.00;;;;;43.24;22.38;100723.91;4992112;28;51144;-54
2021/06/17 10:16:43;;;;;;;;;7.67;7.00;;;;;43.04;29.22;100725.88;4991517;28;51247;-58
2021/06/17 10:19:13;;;;;;;;;4.67;4.33;;;;;44.24;21.53;100729.50;4992426;28;51436;-54
2021/06/17 10:21:40;;;;;;;;;5.33;5.00;;;;;44.83;19.75;100723.44;4990810;28;51446;-55
2021/06/17 10:24:20;;;;;;;;;6.00;6.00;;;;;45.61;26.51;100721.50;4991557;28;51067;-57
2021/06/17 10:26:49;;;;;;;;;4.33;4.33;;;;;45.68;21.01;100718.09;4991152;28;51064;-53
2021/06/17 10:29:39;;;;;;;;;5.00;5.00;;;;;45.93;19.66;100715.38;4992071;28;51120;-50
2021/06/17 10:32:07;;;;;;;;;5.67;5.00;;;;;46.24;17.56;100711.94;4982370;28;52323;-54
2021/06/17 10:34:37;;;;;;;;;6.00;5.33;;;;;46.52;18.02;100717.06;4990411;28;50874;-54
2021/06/17 10:37:13;;;;;;;;;4.00;4.00;;;;;46.55;17.86;100727.66;4974396;28;51471;-54
2021/06/17 10:40:05;;;;;;;;;5.00;5.00;;;;;46.77;17.21;100720.63;4993527;28;51249;-52
2021/06/17 10:42:32;;;;;;;;;5.00;5.00;;;;;47.17;16.81;100708.78;4968070;28;52111;-53
2021/06/17 10:44:59;;;;;;;;;6.67;6.67;;;;;47.25;16.46;100716.13;4990708;28;51125;-53
2021/06/17 10:47:46;;;;;;;;;5.00;4.67;;;;;46.73;16.78;100707.41;4990884;28;51136;-52
2021/06/17 10:50:14;;;;;;;;;7.33;6.00;;;;;44.56;17.49;100711.63;4991145;28;51183;-56
2021/06/17 10:52:42;;;;;;;;;4.67;4.33;;;;;42.73;18.46;100716.06;4990643;28;51985;-51
2021/06/17 10:55:09;;;;;;;;;5.00;5.00;;;;;41.44;19.92;100708.91;4991139;28;50969;-54
2021/06/17 11:00:21;;;;;;;;;6.00;5.00;;;;;38.80;22.69;100705.63;4991353;28;50962;-55
2021/06/17 11:02:47;;;;;;;;;5.67;5.33;;;;;38.90;23.02;100708.44;4990769;28;52141;-55
2021/06/17 11:05:31;;;;;;;;;5.00;5.00;;;;;40.15;22.69;100713.66;4986859;28;51052;-53
2021/06/17 11:08:25;;;;;;;;;5.00;5.00;;;;;41.59;21.35;100702.06;4991057;28;51224;-53
2021/06/17 11:10:52;;;;;;;;;4.33;4.00;;;;;41.91;20.86;100697.34;4991008;28;50991;-54
2021/06/17 11:13:37;;;;;;;;;6.00;5.33;;;;;41.44;20.90;100704.31;4990261;28;52092;-55
2021/06/17 11:16:17;;;;;;;;;5.67;5.67;;;;;41.05;21.64;100699.59;4991185;28;51070;-51
2021/06/17 11:21:23;;;;;;;;;5.50;5.00;;;;;40.75;22.02;100693.16;4990537;28;51011;-55
2021/06/17 11:23:48;;;;;;;;;6.00;5.33;;;;;40.34;22.21;100694.91;4990992;28;51944;-55
2021/06/17 11:26:44;;;;;;;;;7.00;7.00;;;;;39.94;22.86;100697.31;4991133;28;51066;-54
2021/06/17 11:29:39;;;;;;;;;5.33;4.33;;;;;39.50;23.17;100695.50;4993478;28;51156;-52
2021/06/17 11:32:32;;;;;;;;;4.67;4.33;;;;;39.15;23.56;100692.94;5003156;28;51188;-53
2021/06/17 11:34:58;;;;;;;;;6.00;6.00;;;;;38.53;23.84;100687.81;4993786;28;51165;-52
2021/06/17 11:37:28;;;;;;;;;5.33;5.00;;;;;37.78;24.45;100691.66;4999512;28;50930;-53